createdAt,value
2023-02-04T00:01:52.696Z,5.33
2023-02-04T00:07:14.984Z,5.65
2023-02-04T00:12:37.294Z,6.40
2023-02-04T00:17:59.674Z,6.17
2023-02-04T00:23:22.498Z,5.92
2023-02-04T00:28:44.764Z,6.50
2023-02-04T00:34:06.984Z,5.95
2023-02-04T00:39:29.312Z,5.55
2023-02-04T00:44:52.122Z,4.70
2023-02-04T00:50:14.702Z,4.72
2023-02-04T00:55:37.739Z,4.90
2023-02-04T01:00:59.961Z,5.35
2023-02-04T01:06:22.714Z,5.70
2023-02-04T01:11:45.157Z,6.10
2023-02-04T01:17:07.415Z,5.60
2023-02-04T01:22:29.621Z,5.62
2023-02-04T01:27:52.139Z,5.90
2023-02-04T01:33:14.661Z,6.10
2023-02-04T01:38:37.026Z,6.47
2023-02-04T01:44:00.496Z,5.47
2023-02-04T01:49:24.584Z,5.45
2023-02-04T01:54:47.528Z,5.70
2023-02-04T02:00:13.452Z,5.67
2023-02-04T02:05:46.264Z,4.70
2023-02-04T02:11:09.544Z,4.20
2023-02-04T02:16:31.817Z,4.87
2023-02-04T02:21:58.959Z,4.20
2023-02-04T02:27:24.392Z,3.70
2023-02-04T02:32:47.784Z,3.27
2023-02-04T02:38:10.524Z,3.47
2023-02-04T02:43:35.496Z,2.72
2023-02-04T02:48:57.789Z,2.92
2023-02-04T02:54:31.343Z,2.77
2023-02-04T02:59:54.012Z,2.35
2023-02-04T03:05:17.558Z,2.30
2023-02-04T03:10:39.833Z,2.02
2023-02-04T03:16:03.787Z,2.45
2023-02-04T03:21:26.235Z,2.05
2023-02-04T03:26:48.556Z,2.42
2023-02-04T03:32:10.877Z,1.92
2023-02-04T03:37:33.641Z,1.98
2023-02-04T03:42:56.105Z,2.00
2023-02-04T03:48:18.448Z,2.25
2023-02-04T03:53:40.642Z,2.40
2023-02-04T03:59:02.836Z,2.17
2023-02-04T04:04:25.898Z,2.33
2023-02-04T04:09:48.362Z,2.22
2023-02-04T04:15:11.300Z,2.30
2023-02-04T04:20:33.971Z,2.15
2023-02-04T04:25:56.917Z,1.90
2023-02-04T04:31:19.436Z,2.27
2023-02-04T04:36:42.068Z,2.10
2023-02-04T04:42:04.436Z,1.87
2023-02-04T04:47:26.739Z,2.02
2023-02-04T04:52:48.960Z,2.17
2023-02-04T04:58:12.414Z,2.52
2023-02-04T05:03:34.610Z,2.50
2023-02-04T05:08:56.826Z,2.58
2023-02-04T05:14:19.154Z,2.08
2023-02-04T05:19:41.489Z,1.47
2023-02-04T05:25:04.211Z,2.02
2023-02-04T05:30:27.967Z,2.10
2023-02-04T05:35:50.242Z,2.00
2023-02-04T05:41:12.508Z,1.70
2023-02-04T05:46:35.302Z,1.50
2023-02-04T05:51:57.733Z,1.40
2023-02-04T05:57:20.439Z,1.60
2023-02-04T06:02:42.684Z,1.62
2023-02-04T06:08:05.024Z,1.50
2023-02-04T06:13:27.234Z,1.30
2023-02-04T06:18:49.528Z,1.30
2023-02-04T06:24:12.029Z,1.62
2023-02-04T06:29:34.415Z,1.62
2023-02-04T06:34:57.168Z,1.17
2023-02-04T06:40:20.134Z,1.22
2023-02-04T06:45:42.508Z,1.27
2023-02-04T06:51:04.966Z,1.85
2023-02-04T06:56:30.600Z,1.37
2023-02-04T07:01:53.480Z,1.60
2023-02-04T07:07:16.479Z,1.40
2023-02-04T07:12:38.835Z,1.95
2023-02-04T07:18:01.123Z,3.30
2023-02-04T07:23:25.193Z,3.08
2023-02-04T07:28:47.429Z,3.10
2023-02-04T07:34:09.962Z,2.50
2023-02-04T07:39:32.612Z,2.20
2023-02-04T07:44:55.491Z,1.80
2023-02-04T07:50:17.941Z,1.87
2023-02-04T07:55:40.290Z,1.60
2023-02-04T08:01:02.597Z,2.02
2023-02-04T08:06:25.172Z,1.50
2023-02-04T08:11:47.425Z,1.32
2023-02-04T08:17:10.274Z,1.72
2023-02-04T08:22:32.646Z,1.40
2023-02-04T08:27:55.808Z,1.98
2023-02-04T08:33:18.032Z,1.92
2023-02-04T08:38:41.392Z,2.25
2023-02-04T08:44:04.599Z,1.52
2023-02-04T08:49:26.869Z,1.30
2023-02-04T08:54:49.112Z,1.42
2023-02-04T09:00:12.022Z,1.37
2023-02-04T09:05:34.408Z,1.17
2023-02-04T09:10:56.672Z,1.45
2023-02-04T09:16:19.636Z,1.32
2023-02-04T09:21:42.112Z,1.27
2023-02-04T09:27:04.427Z,1.60
2023-02-04T09:32:26.776Z,1.95
2023-02-04T09:37:49.015Z,1.90
2023-02-04T09:43:12.577Z,1.65
2023-02-04T09:48:36.664Z,1.22
2023-02-04T09:54:01.173Z,2.12
2023-02-04T09:59:29.765Z,1.52
2023-02-04T10:04:51.956Z,1.40
2023-02-04T10:10:17.960Z,2.00
2023-02-04T10:15:41.750Z,1.42
2023-02-04T10:21:23.920Z,1.82
2023-02-04T10:26:46.984Z,1.87
2023-02-04T10:32:10.160Z,1.70
2023-02-04T10:37:39.460Z,1.40
2023-02-04T10:43:03.356Z,1.40
2023-02-04T10:48:32.664Z,1.50
2023-02-04T10:54:13.105Z,0.97
2023-02-04T10:59:39.318Z,1.22
2023-02-04T11:05:02.414Z,1.65
2023-02-04T11:10:28.032Z,1.70
2023-02-04T11:16:27.454Z,1.05
2023-02-04T11:21:56.075Z,1.90
2023-02-04T11:27:28.783Z,1.50
2023-02-04T11:33:09.099Z,1.60
2023-02-04T11:43:58.604Z,1.10
2023-02-04T11:49:25.759Z,1.60
2023-02-04T11:54:48.697Z,1.25
2023-02-04T12:00:14.071Z,1.20
2023-02-04T12:06:00.000Z,1.50
2023-02-04T12:11:40.528Z,1.60
2023-02-04T12:17:08.357Z,1.47
2023-02-04T12:22:30.711Z,1.70
2023-02-04T12:27:54.751Z,1.47
2023-02-04T12:33:17.704Z,1.32
2023-02-04T12:38:41.077Z,1.60
2023-02-04T12:44:03.382Z,1.45
2023-02-04T12:49:25.618Z,1.37
2023-02-04T12:54:49.096Z,1.60
2023-02-04T13:00:12.260Z,1.67
2023-02-04T13:05:36.411Z,1.60
2023-02-04T13:10:58.810Z,1.45
2023-02-04T13:16:23.186Z,1.72
2023-02-04T13:21:45.507Z,1.57
2023-02-04T13:27:07.893Z,1.15
2023-02-04T13:32:30.240Z,1.20
2023-02-04T13:37:54.108Z,1.55
2023-02-04T13:43:17.158Z,1.17
2023-02-04T13:48:39.468Z,1.42
2023-02-04T13:54:01.796Z,1.35
2023-02-04T13:59:25.211Z,1.10
2023-02-04T14:04:47.618Z,1.00
2023-02-04T14:10:09.884Z,1.20
2023-02-04T14:15:32.560Z,1.30
2023-02-04T14:20:55.574Z,1.40
2023-02-04T14:26:17.918Z,0.88
2023-02-04T14:31:40.197Z,1.40
2023-02-04T14:37:02.568Z,1.50
2023-02-04T14:42:24.921Z,1.55
2023-02-04T14:47:47.992Z,1.27
2023-02-04T14:53:10.399Z,1.72
2023-02-04T14:58:33.363Z,1.85
2023-02-04T15:03:56.043Z,1.40
2023-02-04T15:09:18.572Z,3.60
2023-02-04T15:14:41.109Z,1.90
2023-02-04T15:20:04.604Z,1.80
2023-02-04T15:25:27.125Z,1.98
2023-02-04T15:30:49.420Z,2.17
2023-02-04T15:36:12.925Z,1.70
2023-02-04T15:41:35.158Z,2.50
2023-02-04T15:46:57.552Z,2.58
2023-02-04T15:57:56.530Z,3.80
2023-02-04T16:03:22.273Z,2.93
2023-02-04T16:08:44.762Z,2.20
2023-02-04T16:14:07.571Z,2.10
2023-02-04T16:19:29.858Z,2.37
2023-02-04T16:24:53.338Z,2.03
2023-02-04T16:30:16.855Z,2.03
2023-02-04T16:35:39.935Z,1.80
2023-02-04T16:41:02.700Z,2.90
2023-02-04T16:46:24.974Z,3.13
2023-02-04T16:51:48.214Z,3.00
2023-02-04T16:57:12.846Z,3.17
2023-02-04T17:02:37.052Z,3.50
2023-02-04T17:07:59.648Z,3.65
2023-02-04T17:13:21.892Z,4.00
2023-02-04T17:18:44.749Z,4.08
2023-02-04T17:24:07.530Z,5.47
2023-02-04T17:29:31.210Z,4.80
2023-02-04T17:34:55.257Z,4.60
2023-02-04T17:40:18.385Z,3.97
2023-02-04T17:45:41.335Z,4.20
2023-02-04T17:51:03.987Z,4.20
2023-02-04T17:56:33.250Z,4.13
2023-02-04T18:01:56.090Z,3.90
2023-02-04T18:07:20.229Z,4.30
2023-02-04T18:12:43.003Z,4.10
2023-02-04T18:18:24.268Z,4.15
2023-02-04T18:23:48.716Z,3.83
2023-02-04T18:29:14.329Z,4.30
2023-02-04T18:34:55.744Z,3.77
2023-02-04T18:40:41.565Z,4.10
2023-02-04T18:46:03.894Z,4.07
2023-02-04T18:51:31.047Z,3.85
2023-02-04T18:56:55.823Z,3.25
2023-02-04T19:02:29.974Z,3.98
2023-02-04T19:07:53.781Z,3.30
2023-02-04T19:13:40.648Z,3.58
2023-02-04T19:19:04.369Z,3.40
2023-02-04T19:24:36.397Z,4.30
2023-02-04T19:30:02.043Z,3.60
2023-02-04T19:35:35.026Z,3.50
2023-02-04T19:40:57.674Z,3.97
2023-02-04T19:46:34.277Z,3.80
2023-02-04T19:52:02.779Z,3.40
2023-02-04T19:57:40.004Z,2.87
2023-02-04T20:03:25.983Z,2.87
2023-02-04T20:09:08.297Z,2.83
2023-02-04T20:14:47.514Z,3.10
2023-02-04T20:20:24.671Z,2.73
2023-02-04T20:25:51.345Z,2.87
2023-02-04T20:31:31.184Z,2.90
2023-02-04T20:36:57.061Z,2.87
2023-02-04T20:42:51.659Z,2.87
2023-02-04T20:48:49.103Z,3.40
2023-02-04T20:54:14.832Z,3.03
2023-02-04T20:59:42.245Z,2.83
2023-02-04T21:05:04.608Z,3.50
2023-02-04T21:10:27.226Z,4.40
2023-02-04T21:15:53.373Z,4.78
2023-02-04T21:21:23.965Z,4.85
2023-02-04T21:26:51.116Z,4.12
2023-02-04T21:32:13.465Z,3.55
2023-02-04T21:37:35.918Z,4.12
2023-02-04T21:42:58.858Z,3.63
2023-02-04T21:48:21.653Z,4.47
2023-02-04T21:53:45.386Z,4.40
2023-02-04T21:59:07.929Z,4.12
2023-02-04T22:04:30.395Z,4.00
2023-02-04T22:09:52.751Z,4.00
2023-02-04T22:15:17.919Z,4.93
2023-02-04T22:20:41.544Z,5.13
2023-02-04T22:26:04.273Z,3.87
2023-02-04T22:37:07.863Z,3.90
2023-02-04T22:42:33.650Z,4.00
2023-02-04T22:47:56.111Z,3.70
2023-02-04T22:53:18.407Z,4.37
2023-02-04T22:58:40.697Z,4.03
2023-02-04T23:04:03.032Z,3.70
2023-02-04T23:09:25.406Z,3.57
2023-02-04T23:14:49.315Z,3.60
2023-02-04T23:20:11.765Z,3.73
2023-02-04T23:25:34.780Z,3.90
2023-02-04T23:30:57.384Z,3.50
2023-02-04T23:36:21.534Z,3.75
2023-02-04T23:41:43.923Z,3.75
2023-02-04T23:47:06.254Z,3.83
2023-02-04T23:52:29.849Z,4.05
2023-02-04T23:57:52.129Z,4.83
